Time;durP1;ratioP1;P1;durP2;ratioP2;P2;SDS_P1;SDS_P2;PMS_P1;PMS_P2;Temp;Humidity;BMP_temperature;BMP_pressure;BME280_temperature;BME280_humidity;BME280_pressure;Samples;Min_cycle;Max_cycle;Signal;HPM_P1;HPM_P2
2023/01/06 00:01:04;;;;;;;210.13;120.47;;;;;;;;;;4917984;29;20042;-78
2023/01/06 00:03:30;;;;;;;211.05;116.07;;;;;;;;;;4962843;28;20054;-78
2023/01/06 00:05:59;;;;;;;214.43;121.35;;;;;;;;;;4992459;28;20065;-79
2023/01/06 00:08:27;;;;;;;208.88;118.30;;;;;;;;;;4960807;28;20073;-79
2023/01/06 00:10:54;;;;;;;212.50;123.80;;;;;;;;;;4993635;28;20051;-80
2023/01/06 00:13:20;;;;;;;209.45;118.18;;;;;;;;;;4941026;28;20074;-79
2023/01/06 00:15:46;;;;;;;217.27;119.75;;;;;;;;;;4961029;28;20349;-79
2023/01/06 00:18:12;;;;;;;195.40;108.28;;;;;;;;;;4955411;28;20078;-78
2023/01/06 00:20:38;;;;;;;208.00;112.88;;;;;;;;;;4940210;28;20061;-80
2023/01/06 00:23:04;;;;;;;203.45;111.85;;;;;;;;;;4971284;28;20045;-78
2023/01/06 00:25:30;;;;;;;179.90;104.93;;;;;;;;;;4970663;28;20042;-79
2023/01/06 00:27:56;;;;;;;186.88;108.13;;;;;;;;;;4959936;28;20045;-80
2023/01/06 00:30:22;;;;;;;185.50;105.85;;;;;;;;;;4962385;28;20063;-80
2023/01/06 00:32:50;;;;;;;185.25;108.00;;;;;;;;;;4948323;28;20051;-80
2023/01/06 00:35:16;;;;;;;174.38;96.72;;;;;;;;;;4970694;28;20027;-78
2023/01/06 00:37:42;;;;;;;169.52;95.07;;;;;;;;;;4972344;28;20141;-78
2023/01/06 00:40:08;;;;;;;171.25;97.32;;;;;;;;;;4970443;28;20571;-79
2023/01/06 00:42:36;;;;;;;180.75;101.32;;;;;;;;;;4956288;28;20039;-77
2023/01/06 00:45:09;;;;;;;167.07;94.32;;;;;;;;;;4955511;28;20030;-82
2023/01/06 00:47:35;;;;;;;156.70;89.55;;;;;;;;;;4955937;28;20150;-78
2023/01/06 00:50:01;;;;;;;156.38;92.95;;;;;;;;;;4956023;28;20043;-78
2023/01/06 00:52:27;;;;;;;165.95;90.50;;;;;;;;;;4953671;28;20035;-79
2023/01/06 00:54:53;;;;;;;168.77;95.30;;;;;;;;;;4954523;28;20042;-76
2023/01/06 00:57:19;;;;;;;162.70;89.00;;;;;;;;;;4954833;28;20034;-78
2023/01/06 00:59:44;;;;;;;150.32;87.95;;;;;;;;;;4953411;28;20031;-79
2023/01/06 01:02:10;;;;;;;167.68;90.82;;;;;;;;;;4969486;28;20098;-80
2023/01/06 01:04:36;;;;;;;162.60;91.45;;;;;;;;;;4954520;28;20478;-79
2023/01/06 01:07:02;;;;;;;161.48;89.47;;;;;;;;;;4969122;28;20129;-80
2023/01/06 01:09:30;;;;;;;153.00;86.95;;;;;;;;;;4953166;29;20046;-79
2023/01/06 01:12:10;;;;;;;148.27;82.38;;;;;;;;;;4937235;28;20031;-79
2023/01/06 01:14:47;;;;;;;146.43;80.68;;;;;;;;;;4987368;28;20050;-79
2023/01/06 01:17:26;;;;;;;137.55;77.05;;;;;;;;;;4974169;28;20109;-79
2023/01/06 01:19:54;;;;;;;136.60;76.50;;;;;;;;;;4972742;28;20131;-79
2023/01/06 01:22:21;;;;;;;142.93;77.18;;;;;;;;;;4972757;28;20027;-79
2023/01/06 01:24:47;;;;;;;132.05;76.40;;;;;;;;;;4972778;28;20112;-79
2023/01/06 01:27:13;;;;;;;134.27;73.70;;;;;;;;;;4974090;28;20078;-79
2023/01/06 01:29:39;;;;;;;144.63;79.18;;;;;;;;;;4976537;28;20039;-78
2023/01/06 01:32:06;;;;;;;137.10;74.00;;;;;;;;;;4974808;28;20357;-79
2023/01/06 01:34:32;;;;;;;104.10;56.50;;;;;;;;;;4973780;28;20522;-78
2023/01/06 01:36:58;;;;;;;112.47;60.95;;;;;;;;;;4973503;28;20456;-79
2023/01/06 01:39:27;;;;;;;95.50;54.22;;;;;;;;;;4973346;28;20122;-78
2023/01/06 01:41:55;;;;;;;90.28;51.05;;;;;;;;;;4972471;28;20031;-78
2023/01/06 01:44:54;;;;;;;96.72;55.67;;;;;;;;;;4972456;28;20046;-79
2023/01/06 01:47:34;;;;;;;88.82;50.75;;;;;;;;;;4973772;28;20035;-79
2023/01/06 01:50:11;;;;;;;98.53;57.03;;;;;;;;;;4973801;28;20069;-78
2023/01/06 01:52:40;;;;;;;94.35;54.65;;;;;;;;;;4977819;28;20038;-78
2023/01/06 01:55:06;;;;;;;108.38;63.70;;;;;;;;;;4980807;28;20029;-78
2023/01/06 01:57:47;;;;;;;123.25;69.15;;;;;;;;;;4979472;28;20137;-78
2023/01/06 02:00:13;;;;;;;128.48;70.75;;;;;;;;;;4976088;28;20038;-80
2023/01/06 02:02:41;;;;;;;137.30;82.47;;;;;;;;;;4997520;28;20053;-78
2023/01/06 02:05:08;;;;;;;120.78;68.93;;;;;;;;;;4983546;28;20038;-78
2023/01/06 02:07:33;;;;;;;109.82;64.85;;;;;;;;;;4956674;28;20039;-79
2023/01/06 02:10:10;;;;;;;127.47;54.30;;;;;;;;;;4956584;28;20533;-79
2023/01/06 02:12:37;;;;;;;110.07;53.33;;;;;;;;;;4973733;28;20110;-79
2023/01/06 02:15:12;;;;;;;98.53;53.22;;;;;;;;;;4973516;28;20043;-77
2023/01/06 02:17:43;;;;;;;90.88;52.28;;;;;;;;;;4988124;28;20041;-79
2023/01/06 02:20:46;;;;;;;84.47;47.95;;;;;;;;;;4975327;28;20035;-78
2023/01/06 02:23:21;;;;;;;74.60;44.60;;;;;;;;;;4975582;28;20089;-77
2023/01/06 02:26:12;;;;;;;72.53;44.88;;;;;;;;;;4975413;28;20066;-78
2023/01/06 02:28:44;;;;;;;65.97;42.25;;;;;;;;;;4959486;28;20031;-79
2023/01/06 02:31:50;;;;;;;69.68;41.25;;;;;;;;;;4975691;28;20042;-79
2023/01/06 02:34:55;;;;;;;69.55;41.35;;;;;;;;;;4975488;28;20035;-79
2023/01/06 02:37:59;;;;;;;67.95;40.20;;;;;;;;;;4935392;29;20476;-79
2023/01/06 02:40:41;;;;;;;70.90;41.22;;;;;;;;;;4935636;29;20063;-79
2023/01/06 02:43:12;;;;;;;69.68;44.40;;;;;;;;;;4981693;28;20061;-78
2023/01/06 02:46:20;;;;;;;66.75;41.70;;;;;;;;;;4974751;28;20065;-79
2023/01/06 02:49:11;;;;;;;75.97;46.53;;;;;;;;;;4957065;29;20111;-79
2023/01/06 02:51:40;;;;;;;69.45;42.33;;;;;;;;;;4972268;28;20039;-79
2023/01/06 02:54:27;;;;;;;73.18;42.58;;;;;;;;;;4972587;28;20378;-79
2023/01/06 02:57:17;;;;;;;68.28;41.53;;;;;;;;;;4955875;28;20031;-78
2023/01/06 03:00:13;;;;;;;70.68;42.38;;;;;;;;;;4955934;28;20074;-78
2023/01/06 03:02:43;;;;;;;73.13;42.92;;;;;;;;;;4971871;28;20043;-79
2023/01/06 03:05:12;;;;;;;65.70;40.15;;;;;;;;;;4957084;28;20043;-76
2023/01/06 03:07:39;;;;;;;57.42;36.05;;;;;;;;;;4971916;28;20093;-80
2023/01/06 03:10:07;;;;;;;60.30;35.60;;;;;;;;;;4957016;28;20019;-79
2023/01/06 03:12:43;;;;;;;61.00;35.92;;;;;;;;;;4955681;28;20039;-79
2023/01/06 03:15:10;;;;;;;57.95;36.53;;;;;;;;;;4954427;28;20031;-80
2023/01/06 03:17:36;;;;;;;61.70;37.42;;;;;;;;;;4971677;28;20031;-79
2023/01/06 03:20:08;;;;;;;65.47;39.08;;;;;;;;;;4955552;28;20031;-77
2023/01/06 03:22:37;;;;;;;75.25;40.17;;;;;;;;;;4955359;28;20035;-78
2023/01/06 03:25:07;;;;;;;67.30;38.58;;;;;;;;;;4956674;28;20027;-79
2023/01/06 03:27:35;;;;;;;67.22;40.40;;;;;;;;;;4972013;28;20038;-80
2023/01/06 03:30:08;;;;;;;71.22;43.22;;;;;;;;;;4974681;28;20031;-81
2023/01/06 03:32:50;;;;;;;77.15;44.20;;;;;;;;;;4972353;28;20043;-80
2023/01/06 03:35:31;;;;;;;70.60;40.65;;;;;;;;;;4971442;28;20035;-78
2023/01/06 03:38:21;;;;;;;67.78;40.30;;;;;;;;;;4971157;28;20046;-80
2023/01/06 03:41:15;;;;;;;67.75;39.53;;;;;;;;;;4956274;28;20058;-79
2023/01/06 03:43:56;;;;;;;69.95;39.35;;;;;;;;;;4955345;28;20035;-79
2023/01/06 03:46:38;;;;;;;74.13;40.00;;;;;;;;;;4970852;28;20505;-79
2023/01/06 03:49:23;;;;;;;63.75;35.97;;;;;;;;;;4954925;29;20553;-78
2023/01/06 03:51:56;;;;;;;61.30;35.15;;;;;;;;;;4955193;28;20042;-79
2023/01/06 03:54:47;;;;;;;66.60;33.80;;;;;;;;;;4971049;28;20059;-79
2023/01/06 03:57:22;;;;;;;66.13;34.70;;;;;;;;;;4955857;28;20031;-78
2023/01/06 04:00:02;;;;;;;60.10;33.50;;;;;;;;;;4954547;28;20533;-77
2023/01/06 04:02:40;;;;;;;87.43;35.88;;;;;;;;;;4968883;28;20572;-79
2023/01/06 04:05:16;;;;;;;95.50;37.60;;;;;;;;;;4973776;28;20062;-80
2023/01/06 04:07:44;;;;;;;71.80;36.42;;;;;;;;;;4954617;28;20462;-79
2023/01/06 04:10:12;;;;;;;66.00;37.05;;;;;;;;;;4954764;28;20053;-79
2023/01/06 04:12:39;;;;;;;65.45;36.95;;;;;;;;;;4954650;29;20082;-80
2023/01/06 04:15:14;;;;;;;63.03;37.33;;;;;;;;;;4954702;28;20647;-79
2023/01/06 04:17:43;;;;;;;66.03;36.85;;;;;;;;;;4954716;28;20118;-79
2023/01/06 04:20:24;;;;;;;52.85;31.77;;;;;;;;;;4954146;28;20114;-78
2023/01/06 04:22:56;;;;;;;59.60;35.83;;;;;;;;;;4969923;28;20405;-80
2023/01/06 04:25:23;;;;;;;55.47;33.17;;;;;;;;;;4953508;29;20046;-78
2023/01/06 04:27:51;;;;;;;56.63;33.20;;;;;;;;;;4953799;29;20468;-78
2023/01/06 04:30:17;;;;;;;49.35;32.45;;;;;;;;;;4970054;28;20054;-79
2023/01/06 04:32:45;;;;;;;55.70;31.75;;;;;;;;;;4953931;29;20089;-78
2023/01/06 04:35:11;;;;;;;52.65;32.72;;;;;;;;;;4955144;29;20342;-79
2023/01/06 04:37:38;;;;;;;47.60;29.42;;;;;;;;;;4953908;29;20081;-78
2023/01/06 04:40:06;;;;;;;44.53;30.38;;;;;;;;;;4970058;28;20031;-80
2023/01/06 04:43:02;;;;;;;48.65;31.08;;;;;;;;;;4969695;28;20034;-78
2023/01/06 04:45:18;;;;;;;49.00;31.05;;;;;;;;;;4953769;29;20034;-78
2023/01/06 04:47:44;;;;;;;46.00;31.52;;;;;;;;;;4954983;28;20034;-79
2023/01/06 04:50:11;;;;;;;51.20;33.50;;;;;;;;;;4954915;28;20042;-79
2023/01/06 04:52:37;;;;;;;67.53;32.53;;;;;;;;;;4955147;28;20456;-79
2023/01/06 04:55:03;;;;;;;50.70;30.98;;;;;;;;;;4954681;28;20042;-79
2023/01/06 04:57:29;;;;;;;51.85;32.63;;;;;;;;;;4954983;29;20053;-79
2023/01/06 04:59:55;;;;;;;51.65;31.77;;;;;;;;;;4969687;28;20547;-80
2023/01/06 05:02:21;;;;;;;49.40;29.63;;;;;;;;;;4987107;28;20026;-80
2023/01/06 05:04:47;;;;;;;46.90;30.77;;;;;;;;;;4972403;28;20460;-78
2023/01/06 05:07:12;;;;;;;45.65;28.92;;;;;;;;;;4989063;28;20059;-80
2023/01/06 05:09:38;;;;;;;50.25;31.05;;;;;;;;;;4972875;28;20043;-77
2023/01/06 05:12:04;;;;;;;53.20;29.48;;;;;;;;;;4972728;28;20481;-79
2023/01/06 05:14:30;;;;;;;55.22;30.70;;;;;;;;;;4973095;28;20055;-78
2023/01/06 05:16:56;;;;;;;57.88;31.63;;;;;;;;;;4973041;28;20432;-79
2023/01/06 05:19:22;;;;;;;69.38;35.05;;;;;;;;;;4988877;28;20485;-78
2023/01/06 05:21:48;;;;;;;54.65;32.83;;;;;;;;;;4973944;28;20030;-78
2023/01/06 05:24:14;;;;;;;49.08;30.80;;;;;;;;;;4973814;28;20038;-78
2023/01/06 05:26:39;;;;;;;50.85;29.98;;;;;;;;;;4973771;28;20023;-79
2023/01/06 05:29:07;;;;;;;53.75;33.30;;;;;;;;;;4973770;28;20510;-79
2023/01/06 05:31:33;;;;;;;49.05;30.17;;;;;;;;;;4973747;28;20495;-76
2023/01/06 05:34:01;;;;;;;49.80;32.40;;;;;;;;;;4988880;28;20037;-78
2023/01/06 05:36:27;;;;;;;53.22;30.83;;;;;;;;;;4974457;28;20045;-80
2023/01/06 05:38:54;;;;;;;44.42;29.48;;;;;;;;;;4973444;28;20054;-79
2023/01/06 05:41:20;;;;;;;54.08;30.23;;;;;;;;;;4973301;28;20088;-77
2023/01/06 05:43:46;;;;;;;44.55;27.48;;;;;;;;;;4972596;28;20038;-79
2023/01/06 05:46:12;;;;;;;56.10;34.50;;;;;;;;;;4988652;28;20031;-79
2023/01/06 05:48:39;;;;;;;49.67;31.25;;;;;;;;;;4973901;28;20497;-79
2023/01/06 05:51:15;;;;;;;46.88;30.10;;;;;;;;;;4973701;28;20019;-77
2023/01/06 05:53:43;;;;;;;51.15;31.45;;;;;;;;;;4975839;28;20035;-79
2023/01/06 05:56:12;;;;;;;69.50;36.92;;;;;;;;;;4976075;28;20031;-78
2023/01/06 05:58:39;;;;;;;58.40;34.95;;;;;;;;;;4992603;28;20053;-77
2023/01/06 06:01:05;;;;;;;58.17;36.72;;;;;;;;;;4992483;28;20118;-77
2023/01/06 06:03:32;;;;;;;71.15;36.08;;;;;;;;;;4960166;28;20066;-78
2023/01/06 06:06:05;;;;;;;57.05;33.65;;;;;;;;;;4977441;28;20034;-78
2023/01/06 06:08:32;;;;;;;59.05;33.08;;;;;;;;;;4975281;28;20488;-78
2023/01/06 06:11:07;;;;;;;52.47;31.10;;;;;;;;;;4977403;28;20034;-79
2023/01/06 06:13:34;;;;;;;50.67;30.42;;;;;;;;;;4977152;28;20046;-77
2023/01/06 06:16:08;;;;;;;51.00;30.90;;;;;;;;;;4976708;28;20062;-79
2023/01/06 06:18:41;;;;;;;46.47;30.13;;;;;;;;;;4977491;28;20089;-79
2023/01/06 06:21:09;;;;;;;51.45;30.58;;;;;;;;;;4978910;28;20043;-80
2023/01/06 06:23:35;;;;;;;49.08;31.40;;;;;;;;;;4977238;28;20396;-77
2023/01/06 06:26:01;;;;;;;52.30;31.73;;;;;;;;;;4991978;28;20046;-78
2023/01/06 06:28:30;;;;;;;47.10;28.42;;;;;;;;;;4977148;28;20058;-80
2023/01/06 06:31:13;;;;;;;45.30;29.20;;;;;;;;;;4975309;28;20035;-79
2023/01/06 06:33:40;;;;;;;48.45;27.58;;;;;;;;;;4976471;28;20114;-77
2023/01/06 06:36:14;;;;;;;53.25;32.33;;;;;;;;;;4975800;28;20034;-79
2023/01/06 06:38:41;;;;;;;43.03;27.23;;;;;;;;;;4977582;28;20039;-77
2023/01/06 06:41:07;;;;;;;46.63;28.13;;;;;;;;;;4977032;28;20027;-80
2023/01/06 06:43:33;;;;;;;46.92;28.92;;;;;;;;;;4976811;28;20041;-78
2023/01/06 06:45:59;;;;;;;48.72;32.67;;;;;;;;;;4976839;28;20098;-81
2023/01/06 06:48:28;;;;;;;45.22;32.85;;;;;;;;;;4991214;28;20189;-79
2023/01/06 06:51:03;;;;;;;37.38;26.50;;;;;;;;;;4977621;28;20034;-79
2023/01/06 06:53:29;;;;;;;39.30;25.02;;;;;;;;;;4971613;28;20027;-79
2023/01/06 06:55:55;;;;;;;38.60;24.67;;;;;;;;;;4975573;28;20512;-78
2023/01/06 06:58:21;;;;;;;40.33;25.40;;;;;;;;;;4975045;28;20043;-79
2023/01/06 07:00:47;;;;;;;40.53;25.48;;;;;;;;;;4990389;28;20023;-79
2023/01/06 07:03:14;;;;;;;54.63;32.92;;;;;;;;;;4990467;28;20092;-76
2023/01/06 07:49:37;;;;;;;34.80;23.65;;;;;;;;;;4954860;29;20417;-79
2023/01/06 07:52:02;;;;;;;34.42;22.95;;;;;;;;;;4982439;28;20496;-81
2023/01/06 07:54:29;;;;;;;33.30;23.13;;;;;;;;;;4974380;28;20086;-80
2023/01/06 07:56:54;;;;;;;33.88;24.13;;;;;;;;;;4973166;28;20019;-78
2023/01/06 07:59:21;;;;;;;37.63;24.60;;;;;;;;;;4974711;28;20525;-79
2023/01/06 08:01:48;;;;;;;34.35;23.95;;;;;;;;;;4964615;28;20049;-81
2023/01/06 08:04:17;;;;;;;35.42;23.70;;;;;;;;;;4965653;28;20039;-80
2023/01/06 08:06:43;;;;;;;37.20;23.10;;;;;;;;;;4972528;28;20031;-80
2023/01/06 08:09:10;;;;;;;36.47;25.42;;;;;;;;;;4972589;28;20034;-80
2023/01/06 08:11:37;;;;;;;36.05;23.88;;;;;;;;;;4955798;28;20086;-81
2023/01/06 08:14:03;;;;;;;38.97;25.42;;;;;;;;;;4975825;28;20470;-79
2023/01/06 08:16:32;;;;;;;41.25;26.35;;;;;;;;;;4957082;28;20106;-79
2023/01/06 08:18:58;;;;;;;39.00;25.65;;;;;;;;;;4964221;28;20027;-80
2023/01/06 08:21:24;;;;;;;40.92;26.70;;;;;;;;;;4962331;28;20118;-79
2023/01/06 08:23:50;;;;;;;35.63;24.75;;;;;;;;;;4967268;28;20125;-78
2023/01/06 08:26:19;;;;;;;41.10;25.08;;;;;;;;;;4978858;28;20497;-78
2023/01/06 08:28:46;;;;;;;50.17;31.20;;;;;;;;;;4972403;28;20161;-78
2023/01/06 08:31:15;;;;;;;56.25;29.05;;;;;;;;;;4973867;28;20065;-79
2023/01/06 08:33:42;;;;;;;41.00;24.42;;;;;;;;;;4990240;28;20042;-80
2023/01/06 08:36:11;;;;;;;45.47;27.60;;;;;;;;;;4975144;28;20053;-79
2023/01/06 08:38:38;;;;;;;47.47;28.77;;;;;;;;;;4970894;28;20125;-80
2023/01/06 08:41:04;;;;;;;45.67;28.92;;;;;;;;;;4973323;28;20437;-79
2023/01/06 08:43:31;;;;;;;53.47;31.85;;;;;;;;;;4973394;28;20043;-78
2023/01/06 08:46:06;;;;;;;62.33;32.30;;;;;;;;;;4971529;28;20027;-79
2023/01/06 08:48:34;;;;;;;55.25;30.35;;;;;;;;;;4985452;28;20057;-78
2023/01/06 08:51:10;;;;;;;57.65;33.75;;;;;;;;;;4969201;28;20380;-80
2023/01/06 08:53:36;;;;;;;55.05;31.50;;;;;;;;;;4973133;28;20029;-80
2023/01/06 08:56:03;;;;;;;48.42;31.05;;;;;;;;;;4973272;28;20034;-79
2023/01/06 08:58:30;;;;;;;61.50;34.50;;;;;;;;;;4971379;28;20033;-78
2023/01/06 09:00:57;;;;;;;53.45;34.10;;;;;;;;;;4971552;28;20042;-80
2023/01/06 09:03:24;;;;;;;50.70;30.80;;;;;;;;;;4972341;28;20034;-80
2023/01/06 09:05:56;;;;;;;47.45;29.30;;;;;;;;;;4972676;28;20030;-85
2023/01/06 09:08:23;;;;;;;49.47;30.00;;;;;;;;;;4972940;28;20125;-80
2023/01/06 09:10:49;;;;;;;49.45;30.48;;;;;;;;;;4966878;28;20033;-81
2023/01/06 09:13:15;;;;;;;47.80;29.42;;;;;;;;;;4970989;28;20077;-79
2023/01/06 09:15:43;;;;;;;52.47;30.73;;;;;;;;;;4985735;28;20051;-78
2023/01/06 09:29:56;;;;;;;54.20;32.13;;;;;;;;;;4988031;28;20037;-81
2023/01/06 09:38:19;;;;;;;50.08;33.17;;;;;;;;;;4270546;29;22070;-71
2023/01/06 09:41:04;;;;;;;51.60;33.38;;;;;;;;;;4851090;29;20057;-71
2023/01/06 09:43:54;;;;;;;56.47;34.53;;;;;;;;;;4853505;29;20038;-72
2023/01/06 09:46:25;;;;;;;59.80;36.55;;;;;;;;;;4856268;29;20034;-72
2023/01/06 09:49:26;;;;;;;56.83;34.80;;;;;;;;;;4859777;29;20037;-71
2023/01/06 09:52:03;;;;;;;70.55;41.58;;;;;;;;;;4861710;29;20125;-72
2023/01/06 09:54:43;;;;;;;62.97;38.10;;;;;;;;;;4867788;29;20055;-71
2023/01/06 09:57:33;;;;;;;66.78;40.15;;;;;;;;;;4875123;29;20041;-71
2023/01/06 10:00:06;;;;;;;59.78;39.45;;;;;;;;;;4875741;29;20056;-71
2023/01/06 10:02:36;;;;;;;59.20;37.22;;;;;;;;;;4874797;29;20146;-71
2023/01/06 10:05:28;;;;;;;60.97;35.58;;;;;;;;;;4875412;29;20052;-70
2023/01/06 10:07:53;;;;;;;53.50;34.17;;;;;;;;;;4862174;29;20053;-73
2023/01/06 10:10:49;;;;;;;57.58;35.70;;;;;;;;;;4875808;29;20025;-71
2023/01/06 10:13:39;;;;;;;52.33;32.65;;;;;;;;;;4879507;29;20045;-71
2023/01/06 10:16:29;;;;;;;50.88;32.25;;;;;;;;;;4878232;29;20057;-70
2023/01/06 10:18:58;;;;;;;52.25;31.92;;;;;;;;;;4875770;29;20112;-70
2023/01/06 10:21:38;;;;;;;45.88;30.13;;;;;;;;;;4877583;29;20317;-69
2023/01/06 10:24:22;;;;;;;50.75;31.08;;;;;;;;;;4874940;29;20037;-71
2023/01/06 10:26:52;;;;;;;;;;;;;;;;;;4874254;29;20029;-72
2023/01/06 10:29:19;;;;;;;46.58;29.45;;;;;;;;;;4875413;29;19916;-72
2023/01/06 10:31:47;;;;;;;39.83;26.10;;;;;;;;;;4875685;29;20060;-74
2023/01/06 10:34:22;;;;;;;38.75;26.02;;;;;;;;;;4873733;29;20045;-71
2023/01/06 10:37:00;;;;;;;37.75;25.92;;;;;;;;;;4877808;29;20057;-71
2023/01/06 10:39:28;;;;;;;45.65;29.98;;;;;;;;;;4879562;29;20049;-72
2023/01/06 10:45:14;;;;;;;44.65;27.00;;;;;;;;;;4878680;29;20038;-70
2023/01/06 10:47:42;;;;;;;39.63;25.65;;;;;;;;;;4878915;29;20436;-71
2023/01/06 10:50:16;;;;;;;42.35;26.90;;;;;;;;;;4878164;29;20486;-72
2023/01/06 10:52:43;;;;;;;35.90;23.55;;;;;;;;;;4867440;29;20050;-71
2023/01/06 10:55:21;;;;;;;34.83;23.65;;;;;;;;;;4875704;29;20040;-71
2023/01/06 10:57:48;;;;;;;39.55;26.38;;;;;;;;;;4873158;29;20041;-71
2023/01/06 11:00:21;;;;;;;41.72;27.13;;;;;;;;;;4874424;29;20035;-70
2023/01/06 11:02:50;;;;;;;41.88;28.08;;;;;;;;;;4875065;29;20039;-72
2023/01/06 11:05:22;;;;;;;40.42;26.08;;;;;;;;;;4877452;29;20040;-72
2023/01/06 11:08:06;;;;;;;41.58;27.90;;;;;;;;;;4891082;29;20487;-71
2023/01/06 11:10:38;;;;;;;43.83;29.08;;;;;;;;;;4870961;29;20486;-72
2023/01/06 11:13:17;;;;;;;47.35;29.30;;;;;;;;;;4875841;29;20640;-73
2023/01/06 11:15:43;;;;;;;59.42;34.45;;;;;;;;;;4876448;29;20395;-70
2023/01/06 11:18:26;;;;;;;49.58;30.92;;;;;;;;;;4875934;29;20032;-72
2023/01/06 11:21:12;;;;;;;42.28;28.20;;;;;;;;;;4877467;29;20404;-72
2023/01/06 11:23:40;;;;;;;47.95;30.85;;;;;;;;;;4877912;29;20116;-73
2023/01/06 11:26:12;;;;;;;59.30;34.17;;;;;;;;;;4892324;29;20029;-71
2023/01/06 11:28:39;;;;;;;52.08;34.05;;;;;;;;;;4878239;29;20120;-72
2023/01/06 11:31:13;;;;;;;46.75;30.48;;;;;;;;;;4876742;29;20055;-72
2023/01/06 11:34:18;;;;;;;51.35;31.60;;;;;;;;;;4878509;29;20040;-71
2023/01/06 11:36:47;;;;;;;49.28;32.42;;;;;;;;;;4877270;29;20048;-71
2023/01/06 11:39:23;;;;;;;53.25;33.83;;;;;;;;;;4874173;29;20196;-71
2023/01/06 11:41:52;;;;;;;45.42;31.33;;;;;;;;;;4873454;29;20551;-72
2023/01/06 11:44:37;;;;;;;68.05;40.08;;;;;;;;;;4877194;29;20045;-72
2023/01/06 11:47:21;;;;;;;45.42;30.55;;;;;;;;;;4877152;29;20127;-71
2023/01/06 11:50:00;;;;;;;78.82;42.33;;;;;;;;;;4877176;29;20432;-71
2023/01/06 11:52:30;;;;;;;53.80;32.85;;;;;;;;;;4881967;29;20124;-70
2023/01/06 11:55:00;;;;;;;43.90;27.50;;;;;;;;;;4881029;29;20160;-72
2023/01/06 11:57:35;;;;;;;39.50;27.02;;;;;;;;;;4876918;29;20040;-71
2023/01/06 12:00:10;;;;;;;46.28;28.08;;;;;;;;;;4875516;29;20041;-72
2023/01/06 12:03:02;;;;;;;48.72;30.30;;;;;;;;;;4875069;29;20088;-71
2023/01/06 12:05:37;;;;;;;46.17;27.98;;;;;;;;;;4874741;29;20037;-73
2023/01/06 12:08:21;;;;;;;37.13;25.33;;;;;;;;;;4876907;29;20518;-72
2023/01/06 12:10:53;;;;;;;38.13;25.48;;;;;;;;;;4867158;29;20116;-71
2023/01/06 12:13:19;;;;;;;45.17;29.13;;;;;;;;;;4877010;29;20071;-72
2023/01/06 12:15:53;;;;;;;39.00;25.73;;;;;;;;;;4855476;29;20049;-71
2023/01/06 12:18:25;;;;;;;42.60;28.50;;;;;;;;;;4877433;29;20077;-71
2023/01/06 12:20:51;;;;;;;44.97;30.88;;;;;;;;;;4881212;29;20037;-73
2023/01/06 12:23:27;;;;;;;46.03;28.02;;;;;;;;;;4875244;29;20494;-71
2023/01/06 12:25:59;;;;;;;39.13;25.80;;;;;;;;;;4874590;29;20067;-71
2023/01/06 12:28:34;;;;;;;39.00;26.08;;;;;;;;;;4860687;29;20064;-70
2023/01/06 12:31:22;;;;;;;40.65;27.05;;;;;;;;;;4876538;29;20151;-72
2023/01/06 12:34:03;;;;;;;40.28;24.42;;;;;;;;;;4879847;29;20060;-72
2023/01/06 12:36:47;;;;;;;37.72;23.25;;;;;;;;;;4877300;29;20044;-72
2023/01/06 12:39:16;;;;;;;;;;;;;;;;;;4865219;29;20085;-72
2023/01/06 12:41:57;;;;;;;38.58;25.40;;;;;;;;;;4874911;29;20495;-72
2023/01/06 12:44:52;;;;;;;36.35;23.67;;;;;;;;;;4861443;29;20309;-72
2023/01/06 12:47:40;;;;;;;31.88;21.73;;;;;;;;;;4857130;29;20159;-72
2023/01/06 12:50:19;;;;;;;35.92;22.25;;;;;;;;;;4860373;29;20104;-73
2023/01/06 12:53:16;;;;;;;34.03;21.63;;;;;;;;;;4868094;29;20124;-72
2023/01/06 12:56:03;;;;;;;38.33;23.83;;;;;;;;;;4858689;29;20167;-72
2023/01/06 12:58:45;;;;;;;42.85;26.30;;;;;;;;;;4876517;29;20064;-73
2023/01/06 13:01:24;;;;;;;45.97;30.30;;;;;;;;;;4871432;29;20422;-72
2023/01/06 13:04:04;;;;;;;45.55;29.45;;;;;;;;;;4871800;29;20060;-70
2023/01/06 13:06:49;;;;;;;49.25;30.17;;;;;;;;;;4892914;29;20080;-71
2023/01/06 13:09:28;;;;;;;46.42;30.10;;;;;;;;;;4874755;29;20036;-72
2023/01/06 13:12:05;;;;;;;44.30;30.20;;;;;;;;;;4877612;29;20264;-71
2023/01/06 13:15:04;;;;;;;44.42;29.42;;;;;;;;;;4875451;29;20070;-72
2023/01/06 13:17:43;;;;;;;61.60;39.60;;;;;;;;;;4887558;29;20404;-71
2023/01/06 13:20:50;;;;;;;51.60;34.47;;;;;;;;;;4873930;29;20040;-72
2023/01/06 13:23:45;;;;;;;48.10;30.98;;;;;;;;;;4848544;29;20351;-71
2023/01/06 13:26:45;;;;;;;53.17;33.03;;;;;;;;;;4823261;29;20087;-71
2023/01/06 13:29:34;;;;;;;52.83;33.72;;;;;;;;;;4872030;29;20072;-72
2023/01/06 13:32:12;;;;;;;54.13;32.60;;;;;;;;;;4872553;29;20041;-71
2023/01/06 13:34:58;;;;;;;91.55;51.13;;;;;;;;;;4872583;29;20140;-72
2023/01/06 13:37:32;;;;;;;47.85;29.80;;;;;;;;;;4869598;29;20064;-72
2023/01/06 13:40:16;;;;;;;41.38;26.33;;;;;;;;;;4874151;29;20056;-72
2023/01/06 13:42:54;;;;;;;37.88;25.20;;;;;;;;;;4885912;29;20123;-72
2023/01/06 13:45:41;;;;;;;58.90;33.05;;;;;;;;;;4885554;29;20463;-73
2023/01/06 13:48:10;;;;;;;38.83;26.42;;;;;;;;;;4856289;29;20037;-72
2023/01/06 13:50:37;;;;;;;53.38;31.05;;;;;;;;;;4890428;29;20076;-72
2023/01/06 13:53:04;;;;;;;52.80;29.80;;;;;;;;;;4882333;29;20037;-73
2023/01/06 13:55:35;;;;;;;58.38;38.70;;;;;;;;;;4877402;29;20498;-71
2023/01/06 13:58:23;;;;;;;35.33;23.33;;;;;;;;;;4877526;29;20045;-72
2023/01/06 14:01:05;;;;;;;58.60;35.85;;;;;;;;;;4878172;29;72142;-73
2023/01/06 14:03:32;;;;;;;54.88;34.38;;;;;;;;;;4880623;29;20117;-72
2023/01/06 14:05:59;;;;;;;38.65;24.25;;;;;;;;;;4861534;29;20040;-72
2023/01/06 14:08:28;;;;;;;43.95;29.45;;;;;;;;;;4871251;29;20475;-72
2023/01/06 14:11:01;;;;;;;47.83;27.77;;;;;;;;;;4876964;29;20104;-72
2023/01/06 14:13:40;;;;;;;52.33;33.83;;;;;;;;;;4874074;29;20041;-72
2023/01/06 14:16:11;;;;;;;50.75;32.30;;;;;;;;;;4877051;29;20177;-72
2023/01/06 14:19:03;;;;;;;55.85;36.60;;;;;;;;;;4880359;29;20048;-71
2023/01/06 14:21:29;;;;;;;47.53;31.10;;;;;;;;;;4872845;29;20048;-70
2023/01/06 14:24:07;;;;;;;52.03;33.05;;;;;;;;;;4880310;29;20517;-71
2023/01/06 14:26:47;;;;;;;46.05;30.92;;;;;;;;;;4893772;29;20380;-72
2023/01/06 14:30:01;;;;;;;45.33;30.23;;;;;;;;;;4879106;29;20041;-72
2023/01/06 14:32:33;;;;;;;61.72;37.88;;;;;;;;;;4857243;29;20083;-72
2023/01/06 14:35:10;;;;;;;58.22;33.58;;;;;;;;;;4866458;29;20049;-72
2023/01/06 14:42:51;;;;;;;35.78;23.25;;;;;;;;;;4897184;29;20052;-83
2023/01/06 14:45:25;;;;;;;44.45;26.85;;;;;;;;;;4898863;29;20131;-79
2023/01/06 14:48:25;;;;;;;45.75;27.35;;;;;;;;;;4893962;29;20364;-78
2023/01/06 14:50:57;;;;;;;43.47;28.52;;;;;;;;;;4896926;29;20056;-81
2023/01/06 14:53:36;;;;;;;48.40;30.25;;;;;;;;;;4888983;29;20060;-81
2023/01/06 14:56:03;;;;;;;42.78;29.55;;;;;;;;;;4914873;23;20430;-74
2023/01/06 14:58:37;;;;;;;47.45;31.27;;;;;;;;;;4909266;29;20032;-75
2023/01/06 15:03:54;;;;;;;60.78;37.47;;;;;;;;;;4895006;29;20324;-70
2023/01/06 15:06:22;;;;;;;49.83;32.53;;;;;;;;;;4898224;29;20132;-69
2023/01/06 15:08:48;;;;;;;46.53;29.17;;;;;;;;;;4898021;29;20031;-70
2023/01/06 15:11:27;;;;;;;53.25;33.92;;;;;;;;;;4897990;29;20039;-71
2023/01/06 15:13:53;;;;;;;48.17;28.05;;;;;;;;;;4896657;29;20052;-70
2023/01/06 15:16:31;;;;;;;43.60;25.65;;;;;;;;;;4897930;29;20040;-69
2023/01/06 15:18:58;;;;;;;36.20;24.75;;;;;;;;;;4896807;29;20121;-69
2023/01/06 15:21:24;;;;;;;44.83;28.40;;;;;;;;;;4897019;29;20032;-71
2023/01/06 15:23:51;;;;;;;76.03;42.95;;;;;;;;;;4897626;29;20038;-72
2023/01/06 15:26:28;;;;;;;55.28;34.53;;;;;;;;;;4893283;29;20481;-70
2023/01/06 15:29:02;;;;;;;50.85;33.00;;;;;;;;;;4895524;29;20033;-70
2023/01/06 15:31:36;;;;;;;62.42;38.55;;;;;;;;;;4893774;29;20481;-72
2023/01/06 15:34:07;;;;;;;77.07;45.22;;;;;;;;;;4904393;29;20043;-72
2023/01/06 15:36:36;;;;;;;74.63;47.13;;;;;;;;;;4887062;29;20153;-73
2023/01/06 15:39:03;;;;;;;86.13;53.42;;;;;;;;;;4889051;29;20040;-71
2023/01/06 15:41:33;;;;;;;83.18;47.88;;;;;;;;;;4896143;29;20098;-71
2023/01/06 15:44:01;;;;;;;77.40;45.53;;;;;;;;;;4897035;29;20518;-71
2023/01/06 15:46:37;;;;;;;70.53;43.50;;;;;;;;;;4896878;29;20119;-74
2023/01/06 15:49:04;;;;;;;57.03;35.55;;;;;;;;;;4899761;29;20044;-72
2023/01/06 15:51:29;;;;;;;54.50;33.88;;;;;;;;;;4911117;29;20478;-71
2023/01/06 15:53:57;;;;;;;55.58;35.08;;;;;;;;;;4897498;29;20039;-71
2023/01/06 15:56:29;;;;;;;65.10;39.05;;;;;;;;;;4895595;29;20032;-73
2023/01/06 15:58:57;;;;;;;65.15;39.05;;;;;;;;;;4887950;29;20033;-72
2023/01/06 16:01:24;;;;;;;95.13;53.30;;;;;;;;;;4896318;29;20043;-71
2023/01/06 16:03:51;;;;;;;96.20;55.92;;;;;;;;;;4892587;29;20052;-72